KTPH Airport (Tonopah) Information

FAA: TPH - ICAO: KTPH

KTPH Airport Location

State Nevada
County Nye
City Tonopah
KTPH Airport is 7 miles east of Tonopah, NV.
Latitude 38-03-36.7000N
Longitude 117-05-12.5000W
Elevation 5,429ft

KTPH Airport METARs

METAR KTPH 080556Z AUTO 36006KT 10SM CLR 02/M03 A3011 RMK AO2 SLP186 T00171028 10117 20017 51009
Altimeter 30.11"
Temperature 1.7°C (35.1°F)
Wind 360° at 6KT
Clouds Skies are clear.
Visibility 10.0mi
Time observed: 2021-12-08T05:56:00Z

KTPH Airport Details

Status Operational
Activation September 1944
Ownership Public
Usage Public
Chart LAS VEGAS
ATC on-site No
Beacon schedule sunset-sunrise
Beacon color clear green

KTPH Airport Contacts

Owner NYE COUNTY
Owner address P O BOX 1031, TONOPAH, NV 89049
Owner phone (775) 209-4174
Manager CHARLES H COLEMAN
Manager address BOX 1397, ROUND MOUNTAIN, NV 89045
Manager phone 702-377-2044

KTPH Airport (Tonopah) Radio Frequencies

KTPH (Airport) Radio Frequencies

UNICOM 123
Common traffic advisory frequency (CTAF) 123